KESF/ESF METAR and TAF weather

Enter ICAO airport designator
Station Type Date Time Source
KESF METAR 2020/09/19 20:53 UTC NOAA

KESF 192053Z AUTO 29010G16KT 320V5820 10SM CLR 28/17 A2998 RMK AO2 SLP150 T02830167 56020 $


Station Type Date Time Source
KESF Decoded METAR 2020/09/19 20:53 UTC NOAA

ALEXANDRIA ESLER RGNL AIRPORT , LA, United States (KESF) 31-24N 092-18W 28M
Sep 19, 2020 - 04:53 PM EDT / 2020.09.19 2053 UTC
Wind: from the WNW (290 degrees) at 12 MPH (10 KT) gusting to 18 MPH (16 KT) (direction variable):0
Visibility: 10 mile(s):0
Sky conditions: clear
Temperature: 82.9 F (28.3 C)
Dew Point: 62.1 F (16.7 C)
Relative Humidity: 49%
Pressure (altimeter): 29.98 in. Hg (1015 hPa)
Pressure tendency: 0.06 inches (2.0 hPa) lower than three hours ago
ob: KESF 192053Z AUTO 29010G16KT 320V5820 10SM CLR 28/17 A2998 RMK AO2 SLP150 T02830167 56020
cycle: 21

Station Type Date Time Source
KESF TAF UTC NOAA

Error!

Example: see airport list